Bao An Cheng 69 — BVBD5 — position and weather

sailwx.info

Track history (hours):
 
Tides and Currents Weather Stations Pressure Air Temp Water Temp Dewpoint Dewpoint Depression Visibility Wind Speed Wind Dir Waves Ship Positions

Bao An Cheng 69

Last reported at 2015-Mar-29 09:24 UTC. Time now 2015-Mar-29 23:51 UTC.
Position N 38°56' E 119°17'.

Length 121 m; draft 5 m.

Type: Cargo ship. MMSI: 412703090.

Date/timePositionNaut miles runAvg speedWind from/ knotsBaromVisibWave heightAir tempDewpointWater temp
2015-Mar-29 09:24N 38°56' E 119°17'1110.4
2015-Mar-29 08:20N 38°47' E 119°24'19 9.9
2015-Mar-29 06:27N 38°31' E 119°36'13 9.9
2015-Mar-29 05:10N 38°20' E 119°44'1010.0
2015-Mar-29 04:11N 38°11' E 119°50'810.1
2015-Mar-29 03:26N 38°04' E 119°55'910.3
2015-Mar-29 02:33N 37°56' E 120°00'1010.3
2015-Mar-29 01:33N 37°47' E 120°06'9 9.0
2015-Mar-29 00:33N 37°40' E 120°13'4 4.3
2015-Mar-28 23:33N 37°40' E 120°18'0 0.1
2015-Mar-28 22:28N 37°40' E 120°19'0 0.0
2015-Mar-28 21:28N 37°40' E 120°19'0 0.0
2015-Mar-28 20:22N 37°40' E 120°19'0 0.0
2015-Mar-28 19:28N 37°40' E 120°19'0 0.0
2015-Mar-28 18:16N 37°40' E 120°19'0 0.0
2015-Mar-28 17:22N 37°40' E 120°19'0 0.1
2015-Mar-28 16:33N 37°40' E 120°19'2 2.4
2015-Mar-28 15:33N 37°38' E 120°16'8 7.5
2015-Mar-28 14:33N 37°44' E 120°09'1010.0
2015-Mar-28 13:33N 37°52' E 120°03'10 9.8
2015-Mar-28 12:33N 38°01' E 119°57'  
2015-Mar-23 08:07N 38°06' E 121°49'8 9.1
2015-Mar-23 07:14N 38°01' E 121°57'17 8.8
2015-Mar-23 05:22N 37°51' E 122°14'9 8.3
2015-Mar-23 04:16N 37°45' E 122°23'6 8.1
2015-Mar-23 03:31N 37°42' E 122°30'9 8.7
2015-Mar-23 02:32N 37°37' E 122°39'14 9.8
2015-Mar-23 01:04N 37°27' E 122°52'811.1
2015-Mar-23 00:19N 37°19' E 122°53'911.6
2015-Mar-22 23:33N 37°10' E 122°52'1111.5
2015-Mar-22 22:33N 36°59' E 122°51'1110.8
2015-Mar-22 21:33N 36°48' E 122°49'10 9.8
2015-Mar-22 20:33N 36°41' E 122°41'9 8.8
2015-Mar-22 19:29N 36°34' E 122°33'148 8.2
2015-Mar-22 01:24N 35°15' E 119°58'910.0
2015-Mar-22 00:32N 35°17' E 119°48'8 7.9
2015-Mar-21 23:33N 35°17' E 119°38'0 0.1
2015-Mar-21 22:26N 35°17' E 119°38'0 0.1
2015-Mar-21 21:32N 35°17' E 119°38'0 0.0
2015-Mar-21 20:32N 35°17' E 119°38'0 0.0
2015-Mar-21 19:20N 35°17' E 119°38'0 0.1
2015-Mar-21 18:14N 35°17' E 119°38'0 0.0
2015-Mar-21 16:26N 35°17' E 119°39'4 4.9
2015-Mar-21 15:33N 35°20' E 119°35'2 1.8
2015-Mar-21 14:15N 35°21' E 119°32'0 0.0
2015-Mar-21 12:09N 35°21' E 119°32'0 0.0
2015-Mar-21 10:33N 35°21' E 119°32'0 0.0
2015-Mar-21 07:18N 35°21' E 119°32'0 0.0
2015-Mar-21 06:30N 35°21' E 119°32'0 0.0
2015-Mar-21 05:18N 35°21' E 119°32'0 0.0
2015-Mar-21 04:30N 35°21' E 119°32'4 4.5
2015-Mar-21 03:32N 35°19' E 119°37'3 3.0
2015-Mar-21 02:32N 35°16' E 119°39'0 0.2
2015-Mar-21 01:03N 35°16' E 119°39'0 0.0
2015-Mar-20 23:29N 35°16' E 119°39'7 6.6
2015-Mar-20 22:29N 35°15' E 119°47'9 9.9
2015-Mar-20 21:33N 35°12' E 119°58'230 9.1
2015-Mar-19 20:28N 32°04' E 122°35'8 8.0
2015-Mar-19 19:25N 31°55' E 122°35'11 8.8
2015-Mar-19 18:08N 31°44' E 122°35'6 9.7
2015-Mar-19 17:33N 31°38' E 122°34'1110.6
2015-Mar-19 16:32N 31°28' E 122°34'1010.6
2015-Mar-19 15:33N 31°17' E 122°33'1111.1
2015-Mar-19 14:32N 31°06' E 122°33'1111.0
2015-Mar-19 13:33N 30°55' E 122°33'1310.3
2015-Mar-19 12:19N 30°43' E 122°37'  
Track history (hours):
 
Tides and Currents Weather Stations Pressure Air Temp Water Temp Dewpoint Dewpoint Depression Visibility Wind Speed Wind Dir Waves Ship Positions

Bao An Cheng 69

Last reported at 2015-Mar-29 09:24 UTC. Time now 2015-Mar-29 23:51 UTC.
Position N 38°56' E 119°17'.

Length 121 m; draft 5 m.

Type: Cargo ship. MMSI: 412703090.

Date/timePositionNaut miles runAvg speedWind from/ knotsBaromVisibWave heightAir tempDewpointWater temp
2015-Mar-29 09:24N 38°56' E 119°17'1110.4
2015-Mar-29 08:20N 38°47' E 119°24'19 9.9
2015-Mar-29 06:27N 38°31' E 119°36'13 9.9
2015-Mar-29 05:10N 38°20' E 119°44'1010.0
2015-Mar-29 04:11N 38°11' E 119°50'810.1
2015-Mar-29 03:26N 38°04' E 119°55'910.3
2015-Mar-29 02:33N 37°56' E 120°00'1010.3
2015-Mar-29 01:33N 37°47' E 120°06'9 9.0
2015-Mar-29 00:33N 37°40' E 120°13'4 4.3
2015-Mar-28 23:33N 37°40' E 120°18'0 0.1
2015-Mar-28 22:28N 37°40' E 120°19'0 0.0
2015-Mar-28 21:28N 37°40' E 120°19'0 0.0
2015-Mar-28 20:22N 37°40' E 120°19'0 0.0
2015-Mar-28 19:28N 37°40' E 120°19'0 0.0
2015-Mar-28 18:16N 37°40' E 120°19'0 0.0
2015-Mar-28 17:22N 37°40' E 120°19'0 0.1
2015-Mar-28 16:33N 37°40' E 120°19'2 2.4
2015-Mar-28 15:33N 37°38' E 120°16'8 7.5
2015-Mar-28 14:33N 37°44' E 120°09'1010.0
2015-Mar-28 13:33N 37°52' E 120°03'10 9.8
2015-Mar-28 12:33N 38°01' E 119°57'  
2015-Mar-23 08:07N 38°06' E 121°49'8 9.1
2015-Mar-23 07:14N 38°01' E 121°57'17 8.8
2015-Mar-23 05:22N 37°51' E 122°14'9 8.3
2015-Mar-23 04:16N 37°45' E 122°23'6 8.1
2015-Mar-23 03:31N 37°42' E 122°30'9 8.7
2015-Mar-23 02:32N 37°37' E 122°39'14 9.8
2015-Mar-23 01:04N 37°27' E 122°52'811.1
2015-Mar-23 00:19N 37°19' E 122°53'911.6
2015-Mar-22 23:33N 37°10' E 122°52'1111.5
2015-Mar-22 22:33N 36°59' E 122°51'1110.8
2015-Mar-22 21:33N 36°48' E 122°49'10 9.8
2015-Mar-22 20:33N 36°41' E 122°41'9 8.8
2015-Mar-22 19:29N 36°34' E 122°33'148 8.2
2015-Mar-22 01:24N 35°15' E 119°58'910.0
2015-Mar-22 00:32N 35°17' E 119°48'8 7.9
2015-Mar-21 23:33N 35°17' E 119°38'0 0.1
2015-Mar-21 22:26N 35°17' E 119°38'0 0.1
2015-Mar-21 21:32N 35°17' E 119°38'0 0.0
2015-Mar-21 20:32N 35°17' E 119°38'0 0.0
2015-Mar-21 19:20N 35°17' E 119°38'0 0.1
2015-Mar-21 18:14N 35°17' E 119°38'0 0.0
2015-Mar-21 16:26N 35°17' E 119°39'4 4.9
2015-Mar-21 15:33N 35°20' E 119°35'2 1.8
2015-Mar-21 14:15N 35°21' E 119°32'0 0.0
2015-Mar-21 12:09N 35°21' E 119°32'0 0.0
2015-Mar-21 10:33N 35°21' E 119°32'0 0.0
2015-Mar-21 07:18N 35°21' E 119°32'0 0.0
2015-Mar-21 06:30N 35°21' E 119°32'0 0.0
2015-Mar-21 05:18N 35°21' E 119°32'0 0.0
2015-Mar-21 04:30N 35°21' E 119°32'4 4.5
2015-Mar-21 03:32N 35°19' E 119°37'3 3.0
2015-Mar-21 02:32N 35°16' E 119°39'0 0.2
2015-Mar-21 01:03N 35°16' E 119°39'0 0.0
2015-Mar-20 23:29N 35°16' E 119°39'7 6.6
2015-Mar-20 22:29N 35°15' E 119°47'9 9.9
2015-Mar-20 21:33N 35°12' E 119°58'230 9.1
2015-Mar-19 20:28N 32°04' E 122°35'8 8.0
2015-Mar-19 19:25N 31°55' E 122°35'11 8.8
2015-Mar-19 18:08N 31°44' E 122°35'6 9.7
2015-Mar-19 17:33N 31°38' E 122°34'1110.6
2015-Mar-19 16:32N 31°28' E 122°34'1010.6
2015-Mar-19 15:33N 31°17' E 122°33'1111.1
2015-Mar-19 14:32N 31°06' E 122°33'1111.0
2015-Mar-19 13:33N 30°55' E 122°33'1310.3
2015-Mar-19 12:19N 30°43' E 122°37'  

Dump ship's entire track history